createdAt,value
2018-05-18T00:04:10.954Z,95358
2018-05-18T00:09:06.374Z,95362
2018-05-18T00:14:01.489Z,95359
2018-05-18T00:18:56.796Z,95357
2018-05-18T00:23:52.176Z,95359
2018-05-18T00:28:47.458Z,95363
2018-05-18T00:33:43.214Z,95365
2018-05-18T00:38:38.785Z,95361
2018-05-18T00:43:34.246Z,95367
2018-05-18T00:48:29.816Z,95367
2018-05-18T00:53:25.047Z,95356
2018-05-18T00:58:20.415Z,95356
2018-05-18T01:03:15.545Z,95359
2018-05-18T01:08:10.669Z,95374
2018-05-18T01:13:06.094Z,95366
2018-05-18T01:18:00.832Z,95368
2018-05-18T01:22:56.474Z,95365
2018-05-18T01:27:51.603Z,95368
2018-05-18T01:32:46.796Z,95371
2018-05-18T01:37:42.458Z,95379
2018-05-18T01:42:37.855Z,95383
2018-05-18T01:47:33.360Z,95372
2018-05-18T01:52:29.033Z,95373
2018-05-18T01:57:24.579Z,95382
2018-05-18T02:02:19.527Z,95376
2018-05-18T02:07:14.516Z,95375
2018-05-18T02:12:09.776Z,95380
2018-05-18T02:17:04.886Z,95369
2018-05-18T02:22:00.391Z,95352
2018-05-18T02:26:56.005Z,95373
2018-05-18T02:31:51.328Z,95372
2018-05-18T02:36:46.689Z,95372
2018-05-18T02:41:42.168Z,95363
2018-05-18T02:46:37.650Z,95346
2018-05-18T02:51:33.161Z,95365
2018-05-18T02:56:28.581Z,95364
2018-05-18T03:01:23.593Z,95366
2018-05-18T03:06:19.011Z,95369
2018-05-18T03:11:13.795Z,95373
2018-05-18T03:16:09.447Z,95372
2018-05-18T03:21:04.698Z,95376
2018-05-18T03:26:00.103Z,95380
2018-05-18T03:30:55.456Z,95389
2018-05-18T03:35:49.869Z,95398
2018-05-18T03:40:44.685Z,95399
2018-05-18T03:45:40.262Z,95408
2018-05-18T03:50:35.251Z,95394
2018-05-18T03:55:30.337Z,95408
2018-05-18T04:00:25.915Z,95398
2018-05-18T04:05:20.885Z,95398
2018-05-18T04:10:15.967Z,95414
2018-05-18T04:15:11.365Z,95038
2018-05-18T04:20:06.686Z,95416
2018-05-18T04:25:01.663Z,95414
2018-05-18T04:29:57.712Z,95413
2018-05-18T04:34:52.227Z,95416
2018-05-18T04:39:47.339Z,95419
2018-05-18T04:44:42.163Z,95424
2018-05-18T04:49:37.300Z,95423
2018-05-18T04:54:32.505Z,95413
2018-05-18T04:59:29.412Z,95421
2018-05-18T05:04:23.720Z,95416
2018-05-18T05:09:19.150Z,95417
2018-05-18T05:14:14.464Z,95427
2018-05-18T05:19:10.023Z,95424
2018-05-18T05:24:05.636Z,95425
2018-05-18T05:29:01.097Z,95428
2018-05-18T05:33:56.571Z,95431
2018-05-18T05:38:52.790Z,95426
2018-05-18T05:43:47.722Z,95424
2018-05-18T05:48:41.824Z,95426
2018-05-18T05:53:36.890Z,95417
2018-05-18T05:58:32.577Z,95421
2018-05-18T06:03:27.673Z,95414
2018-05-18T06:08:22.373Z,95416
2018-05-18T06:13:17.634Z,95407
2018-05-18T06:18:12.466Z,95414
2018-05-18T06:23:08.111Z,95405
2018-05-18T06:28:03.281Z,95405
2018-05-18T06:32:58.980Z,95400
2018-05-18T06:37:54.289Z,95400
2018-05-18T06:42:49.619Z,95398
2018-05-18T06:47:45.016Z,95398
2018-05-18T06:52:40.203Z,95399
2018-05-18T06:57:35.272Z,95392
2018-05-18T07:02:30.751Z,95387
2018-05-18T07:07:26.248Z,95386
2018-05-18T07:12:21.873Z,95381
2018-05-18T07:17:16.686Z,95381
2018-05-18T07:22:11.206Z,95380
2018-05-18T07:27:06.604Z,95381
2018-05-18T07:32:01.072Z,95373
2018-05-18T07:36:55.421Z,95379
2018-05-18T07:41:50.028Z,95433
2018-05-18T07:46:45.567Z,95378
2018-05-18T07:51:41.111Z,95376
2018-05-18T07:56:36.693Z,95379
2018-05-18T08:01:32.125Z,95399
2018-05-18T08:06:27.281Z,95376
2018-05-18T08:11:23.059Z,95373
2018-05-18T08:16:18.198Z,95368
2018-05-18T08:21:13.591Z,95367
2018-05-18T08:26:09.059Z,95363
2018-05-18T08:31:04.311Z,95362
2018-05-18T08:35:59.326Z,95363
2018-05-18T08:40:54.330Z,95363
2018-05-18T08:45:49.332Z,95366
2018-05-18T08:50:45.127Z,95364
2018-05-18T08:55:40.382Z,95355
2018-05-18T09:00:36.098Z,95202
2018-05-18T09:05:30.750Z,95361
2018-05-18T09:10:26.457Z,95365
2018-05-18T09:15:21.816Z,95357
2018-05-18T09:20:17.468Z,95353
2018-05-18T09:25:12.493Z,95356
2018-05-18T09:30:08.190Z,95352
2018-05-18T09:35:03.896Z,95360
2018-05-18T09:39:59.316Z,95361
2018-05-18T09:44:53.974Z,95354
2018-05-18T09:49:49.352Z,95344
2018-05-18T09:54:45.592Z,95344
2018-05-18T09:59:41.038Z,95338
2018-05-18T10:04:37.062Z,95337
2018-05-18T10:09:32.770Z,95332
2018-05-18T10:14:28.249Z,95328
2018-05-18T10:19:23.786Z,95324
2018-05-18T10:24:18.903Z,95310
2018-05-18T10:29:14.236Z,95336
2018-05-18T10:34:09.961Z,95301
2018-05-18T10:39:05.175Z,95300
2018-05-18T10:44:00.819Z,95298
2018-05-18T10:48:56.208Z,95289
2018-05-18T10:53:52.206Z,95282
2018-05-18T10:58:47.875Z,95269
2018-05-18T11:03:43.006Z,95276
2018-05-18T11:08:38.279Z,95274
2018-05-18T11:13:33.760Z,95269
2018-05-18T11:18:29.783Z,95272
2018-05-18T11:23:24.893Z,95265
2018-05-18T11:28:20.503Z,95260
2018-05-18T11:33:15.437Z,95266
2018-05-18T11:38:10.299Z,95258
2018-05-18T11:43:06.029Z,95254
2018-05-18T11:48:01.536Z,95250
2018-05-18T11:52:56.473Z,95245
2018-05-18T11:57:52.132Z,95236
2018-05-18T12:02:47.247Z,95234
2018-05-18T12:07:42.354Z,95228
2018-05-18T12:12:38.131Z,95221
2018-05-18T12:17:33.160Z,95221
2018-05-18T12:22:29.368Z,95188
2018-05-18T12:27:24.732Z,95212
2018-05-18T12:32:20.427Z,95216
2018-05-18T12:37:15.575Z,95198
2018-05-18T12:42:10.397Z,95198
2018-05-18T12:47:06.222Z,95201
2018-05-18T12:52:01.419Z,95189
2018-05-18T12:56:56.837Z,95192
2018-05-18T13:01:52.290Z,95182
2018-05-18T13:06:47.701Z,95176
2018-05-18T13:11:43.204Z,95175
2018-05-18T13:16:38.204Z,95172
2018-05-18T13:21:33.553Z,95164
2018-05-18T13:26:28.514Z,95121
2018-05-18T13:31:24.367Z,95098
2018-05-18T13:36:19.053Z,95157
2018-05-18T13:41:14.956Z,95161
2018-05-18T13:46:10.788Z,95157
2018-05-18T13:51:05.903Z,95156
2018-05-18T13:56:00.551Z,95149
2018-05-18T14:00:55.927Z,95149
2018-05-18T14:05:50.969Z,95152
2018-05-18T14:10:46.103Z,95147
2018-05-18T14:15:41.620Z,94988
2018-05-18T14:20:36.813Z,95148
2018-05-18T14:25:32.341Z,95147
2018-05-18T14:30:27.383Z,95135
2018-05-18T14:35:22.889Z,95137
2018-05-18T14:40:18.134Z,95146
2018-05-18T14:45:13.393Z,95143
2018-05-18T14:50:09.263Z,95134
2018-05-18T14:55:04.792Z,95133
2018-05-18T15:00:00.245Z,95130
2018-05-18T15:04:55.752Z,95126
2018-05-18T15:09:51.516Z,95127
2018-05-18T15:14:47.187Z,95127
2018-05-18T15:19:42.244Z,95130
2018-05-18T15:24:37.781Z,95120
2018-05-18T15:29:32.867Z,95120
2018-05-18T15:34:28.435Z,95119
2018-05-18T15:39:24.068Z,95116
2018-05-18T15:44:19.731Z,95122
2018-05-18T15:49:15.489Z,95116
2018-05-18T15:54:10.376Z,94864
2018-05-18T15:59:05.762Z,95122
2018-05-18T16:04:01.230Z,95135
2018-05-18T16:08:56.804Z,95150
2018-05-18T16:13:52.270Z,95154
2018-05-18T16:18:47.400Z,95147
2018-05-18T16:23:42.574Z,95156
2018-05-18T16:28:37.832Z,95153
2018-05-18T16:33:32.915Z,95139
2018-05-18T16:38:28.051Z,95138
2018-05-18T16:43:23.477Z,95138
2018-05-18T16:48:18.883Z,95144
2018-05-18T16:53:14.013Z,95148
2018-05-18T16:58:09.585Z,95144
2018-05-18T17:03:05.222Z,95152
2018-05-18T17:08:00.390Z,95147
2018-05-18T17:12:55.927Z,95153
2018-05-18T17:17:50.611Z,95149
2018-05-18T17:22:46.083Z,95162
2018-05-18T17:27:41.193Z,95163
2018-05-18T17:32:36.099Z,95171
2018-05-18T17:37:31.567Z,95171
2018-05-18T17:42:26.161Z,95180
2018-05-18T17:47:21.781Z,95174
2018-05-18T17:52:17.212Z,95069
2018-05-18T17:57:12.863Z,95189
2018-05-18T18:02:08.134Z,95187
2018-05-18T18:07:04.004Z,95194
2018-05-18T18:11:59.049Z,95190
2018-05-18T18:16:54.591Z,95188
2018-05-18T18:21:50.153Z,95080
2018-05-18T18:26:45.299Z,95192
2018-05-18T18:31:40.181Z,95190
2018-05-18T18:36:36.007Z,95187
2018-05-18T18:41:31.360Z,95195
2018-05-18T18:46:26.613Z,95212
2018-05-18T18:51:22.172Z,95216
2018-05-18T18:56:17.397Z,95231
2018-05-18T19:01:12.640Z,95226
2018-05-18T19:06:07.863Z,95228
2018-05-18T19:11:03.173Z,95239
2018-05-18T19:15:58.415Z,95236
2018-05-18T19:20:53.653Z,95243
2018-05-18T19:25:49.486Z,95250
2018-05-18T19:30:44.846Z,95253
2018-05-18T19:35:40.560Z,95257
2018-05-18T19:40:35.910Z,95256
2018-05-18T19:45:31.454Z,95260
2018-05-18T19:50:26.879Z,95252
2018-05-18T19:55:22.574Z,95251
2018-05-18T20:00:17.474Z,95246
2018-05-18T20:05:12.538Z,95247
2018-05-18T20:10:07.828Z,95235
2018-05-18T20:15:03.517Z,95241
2018-05-18T20:19:58.631Z,95242
2018-05-18T20:24:53.828Z,95243
2018-05-18T20:29:48.906Z,95235
2018-05-18T20:34:44.393Z,95235
2018-05-18T20:39:39.441Z,95237
2018-05-18T20:44:34.368Z,95231
2018-05-18T20:49:29.987Z,95223
2018-05-18T20:54:25.553Z,95221
2018-05-18T20:59:20.736Z,95210
2018-05-18T21:04:16.207Z,95207
2018-05-18T21:09:11.688Z,95214
2018-05-18T21:14:07.044Z,95099
2018-05-18T21:19:02.906Z,95204
2018-05-18T21:23:57.984Z,95218
2018-05-18T21:28:53.508Z,95215
2018-05-18T21:33:48.844Z,95226
2018-05-18T21:38:43.872Z,95237
2018-05-18T21:43:39.721Z,95228
2018-05-18T21:48:35.067Z,95242
2018-05-18T21:53:30.046Z,95244
2018-05-18T21:58:25.611Z,95248
2018-05-18T22:03:21.352Z,95261
2018-05-18T22:08:16.797Z,95255
2018-05-18T22:13:12.467Z,95255
2018-05-18T22:18:07.963Z,95255
2018-05-18T22:23:03.682Z,95251
2018-05-18T22:27:59.117Z,95246
2018-05-18T22:32:54.335Z,95248
2018-05-18T22:37:50.339Z,95241
2018-05-18T22:42:46.155Z,95243
2018-05-18T22:47:41.904Z,95247
2018-05-18T22:52:37.238Z,95247
2018-05-18T22:57:32.710Z,95250
2018-05-18T23:02:28.355Z,95240
2018-05-18T23:07:23.839Z,95245
2018-05-18T23:12:19.639Z,95240
2018-05-18T23:17:15.179Z,95220
2018-05-18T23:22:10.548Z,95223
2018-05-18T23:27:06.055Z,95222
2018-05-18T23:32:01.763Z,95228
2018-05-18T23:36:57.112Z,95232
2018-05-18T23:41:52.705Z,95222
2018-05-18T23:46:48.194Z,95221
2018-05-18T23:51:43.758Z,95218
2018-05-18T23:56:39.435Z,95219
